Time;durP1;ratioP1;P1;durP2;ratioP2;P2;SDS_P1;SDS_P2;PMS_P1;PMS_P2;Temp;Humidity;BMP_temperature;BMP_pressure;BME280_temperature;BME280_humidity;BME280_pressure;Samples;Min_cycle;Max_cycle;Signal;HPM_P1;HPM_P2
2023/10/02 00:00:18;;;;;;;29.00;11.48;;;18.10;78.70;;;;;;9169182;19;20021;-77
2023/10/02 00:03:24;;;;;;;30.98;11.85;;;18.10;78.20;;;;;;9169704;19;20606;-75
2023/10/02 00:06:31;;;;;;;27.55;11.20;;;18.50;79.50;;;;;;9167824;19;20474;-74
2023/10/02 00:09:48;;;;;;;28.73;11.15;;;18.10;78.60;;;;;;9170003;19;20721;-75
2023/10/02 00:12:59;;;;;;;31.67;11.73;;;18.10;79.50;;;;;;9166442;19;20044;-76
2023/10/02 00:16:08;;;;;;;26.88;11.43;;;18.10;80.00;;;;;;9169076;19;20018;-74
2023/10/02 00:19:27;;;;;;;29.23;11.45;;;18.00;80.00;;;;;;9174148;19;20534;-75
2023/10/02 00:22:41;;;;;;;33.53;12.07;;;18.10;80.00;;;;;;9169295;19;20022;-72
2023/10/02 00:26:03;;;;;;;26.38;11.20;;;18.00;79.80;;;;;;9171186;19;20038;-76
2023/10/02 00:29:10;;;;;;;29.60;11.23;;;18.00;80.60;;;;;;9169215;19;20037;-77
2023/10/02 00:32:19;;;;;;;32.83;12.00;;;18.00;80.70;;;;;;9166993;19;20019;-74
2023/10/02 00:35:27;;;;;;;28.13;11.20;;;17.90;81.60;;;;;;9167676;19;20708;-71
2023/10/02 00:38:36;;;;;;;29.65;11.57;;;17.90;82.20;;;;;;9166586;19;20014;-75
2023/10/02 00:42:09;;;;;;;29.35;12.77;;;17.90;81.10;;;;;;9172274;19;20015;-74
2023/10/02 00:45:09;;;;;;;35.17;12.50;;;17.90;78.30;;;;;;9168516;19;20037;-75
2023/10/02 00:48:30;;;;;;;34.30;12.33;;;17.80;78.10;;;;;;9169859;19;20021;-76
2023/10/02 00:51:40;;;;;;;31.42;12.80;;;17.80;78.30;;;;;;9168411;19;20419;-73
2023/10/02 00:54:46;;;;;;;28.48;11.15;;;17.70;78.30;;;;;;9164089;19;20018;-75
2023/10/02 00:57:59;;;;;;;29.98;11.55;;;17.70;78.20;;;;;;9170105;19;20502;-75
2023/10/02 01:01:05;;;;;;;27.15;11.88;;;17.70;78.50;;;;;;9169135;19;20472;-77
2023/10/02 01:04:24;;;;;;;29.27;11.45;;;17.70;78.20;;;;;;9165259;19;20078;-71
2023/10/02 01:07:30;;;;;;;27.65;11.60;;;17.70;78.40;;;;;;9168969;19;20390;-74
2023/10/02 01:10:40;;;;;;;27.10;11.75;;;17.70;79.40;;;;;;9168982;19;20050;-74
2023/10/02 01:13:48;;;;;;;28.10;11.43;;;17.70;79.30;;;;;;9164778;19;20381;-73
2023/10/02 01:16:56;;;;;;;26.50;11.30;;;17.70;79.30;;;;;;9169092;19;20011;-76
2023/10/02 01:20:08;;;;;;;26.88;11.45;;;17.80;79.20;;;;;;9165821;19;20612;-77
2023/10/02 01:23:23;;;;;;;35.33;12.65;;;17.70;79.20;;;;;;9163446;19;20038;-70
2023/10/02 01:26:31;;;;;;;36.30;13.13;;;17.60;79.10;;;;;;9164126;19;20370;-74
2023/10/02 01:29:38;;;;;;;27.58;11.73;;;17.60;79.80;;;;;;9164820;19;20011;-72
2023/10/02 01:33:06;;;;;;;30.42;11.45;;;17.70;80.50;;;;;;9162489;19;20850;-74
2023/10/02 01:36:15;;;;;;;28.65;11.60;;;17.70;79.80;;;;;;9164023;19;20018;-73
2023/10/02 01:39:21;;;;;;;27.02;11.35;;;17.60;79.70;;;;;;9164083;19;20435;-76
2023/10/02 01:42:32;;;;;;;27.40;11.13;;;17.70;79.60;;;;;;9163751;19;20034;-73
2023/10/02 01:45:42;;;;;;;29.08;11.10;;;17.60;79.80;;;;;;9163124;19;20481;-73
2023/10/02 01:48:50;;;;;;;35.45;11.93;;;17.60;79.90;;;;;;9161880;19;20417;-76
2023/10/02 01:52:01;;;;;;;30.85;11.95;;;17.60;80.10;;;;;;9162700;19;20130;-76
2023/10/02 01:55:10;;;;;;;26.45;11.32;;;17.60;80.60;;;;;;9156515;19;20019;-74
2023/10/02 01:58:20;;;;;;;32.03;12.25;;;17.60;80.40;;;;;;9164480;19;20021;-74
2023/10/02 02:01:28;;;;;;;29.70;12.65;;;17.60;80.90;;;;;;9161544;19;20369;-76
2023/10/02 02:04:33;;;;;;;28.60;11.88;;;17.50;79.80;;;;;;9161420;19;20022;-75
2023/10/02 02:07:41;;;;;;;28.63;11.45;;;17.50;80.00;;;;;;9162841;19;20030;-72
2023/10/02 02:10:48;;;;;;;26.17;10.38;;;17.50;80.60;;;;;;9159186;19;20022;-76
2023/10/02 02:14:03;;;;;;;30.83;12.18;;;17.50;81.20;;;;;;9159328;19;20014;-76
2023/10/02 02:17:10;;;;;;;27.50;11.30;;;17.50;79.70;;;;;;9168549;19;20025;-73
2023/10/02 02:20:43;;;;;;;26.92;11.80;;;17.50;79.10;;;;;;9169008;19;20901;-77
2023/10/02 02:23:45;;;;;;;28.33;10.68;;;17.50;79.10;;;;;;9171094;19;20019;-75
2023/10/02 02:26:57;;;;;;;30.48;11.80;;;17.40;78.80;;;;;;9170455;19;20029;-76
2023/10/02 02:30:10;;;;;;;29.33;12.02;;;17.40;79.30;;;;;;9172196;19;20026;-76
2023/10/02 02:33:34;;;;;;;31.55;11.93;;;17.40;79.40;;;;;;9170620;19;20010;-75
2023/10/02 02:36:41;;;;;;;32.47;12.60;;;17.40;78.90;;;;;;9170412;19;20018;-74
2023/10/02 02:39:49;;;;;;;29.05;12.00;;;17.40;78.90;;;;;;9172000;19;20025;-74
2023/10/02 02:42:56;;;;;;;25.45;10.75;;;17.10;79.30;;;;;;9172436;19;20015;-75
2023/10/02 02:46:07;;;;;;;28.27;11.93;;;17.40;79.60;;;;;;9171132;19;20018;-71
2023/10/02 02:49:13;;;;;;;31.83;12.00;;;17.40;82.60;;;;;;9168594;19;20628;-76
2023/10/02 02:52:25;;;;;;;31.45;12.38;;;17.30;78.80;;;;;;9171438;19;20014;-76
2023/10/02 02:55:30;;;;;;;29.02;11.93;;;17.30;78.90;;;;;;9166479;19;20014;-71
2023/10/02 02:58:39;;;;;;;28.48;11.27;;;17.30;78.80;;;;;;9170359;19;20029;-75
2023/10/02 03:01:47;;;;;;;29.42;11.10;;;17.30;78.90;;;;;;9169432;19;20606;-70
2023/10/02 03:04:56;;;;;;;29.58;12.23;;;17.30;79.00;;;;;;9168091;19;20376;-76
2023/10/02 03:08:02;;;;;;;33.17;11.77;;;17.30;78.90;;;;;;9168666;19;20031;-74
2023/10/02 03:11:10;;;;;;;30.92;13.02;;;17.30;79.00;;;;;;9170947;19;20045;-77
2023/10/02 03:14:16;;;;;;;31.10;11.73;;;17.30;79.00;;;;;;9168413;19;20023;-74
2023/10/02 03:17:36;;;;;;;29.92;12.05;;;17.30;79.00;;;;;;9170509;19;20373;-71
2023/10/02 03:20:43;;;;;;;31.98;10.95;;;17.30;79.10;;;;;;9169975;19;20022;-74
2023/10/02 03:23:53;;;;;;;33.35;11.80;;;17.20;79.00;;;;;;9169639;19;20021;-70
2023/10/02 03:27:00;;;;;;;31.30;11.43;;;17.20;79.10;;;;;;9169760;19;20014;-70
2023/10/02 03:30:09;;;;;;;27.42;11.57;;;17.20;79.20;;;;;;9170848;19;20021;-70
2023/10/02 03:33:20;;;;;;;30.48;12.35;;;17.20;79.20;;;;;;9167866;19;20247;-69
2023/10/02 03:36:27;;;;;;;31.83;11.93;;;17.20;79.20;;;;;;9170641;19;20026;-68
2023/10/02 03:42:55;;;;;;;26.92;11.40;;;17.20;79.30;;;;;;9168047;19;20014;-70
2023/10/02 03:46:01;;;;;;;32.10;11.90;;;17.20;79.30;;;;;;9167294;19;20015;-70
2023/10/02 03:49:11;;;;;;;33.65;12.20;;;17.20;79.30;;;;;;9165883;19;20026;-68
2023/10/02 03:52:17;;;;;;;29.45;11.68;;;17.10;79.40;;;;;;9166807;19;20013;-69
2023/10/02 03:55:26;;;;;;;31.02;12.30;;;17.10;79.40;;;;;;9161621;19;20507;-69
2023/10/02 03:58:35;;;;;;;26.83;9.90;;;17.10;79.30;;;;;;9167320;19;20372;-69
2023/10/02 04:01:43;;;;;;;28.45;11.98;;;17.10;79.40;;;;;;9166547;19;20018;-69
2023/10/02 04:04:51;;;;;;;33.30;12.48;;;17.10;79.40;;;;;;9169044;19;20014;-70
2023/10/02 04:08:12;;;;;;;29.60;12.18;;;17.10;79.50;;;;;;9170076;19;20026;-69
2023/10/02 04:11:21;;;;;;;26.00;10.52;;;17.10;80.10;;;;;;9169242;19;20014;-69
2023/10/02 04:14:38;;;;;;;29.00;11.02;;;17.10;79.60;;;;;;9165606;19;20025;-70
2023/10/02 04:17:49;;;;;;;28.10;11.75;;;17.10;79.60;;;;;;9169155;19;20078;-72
2023/10/02 04:21:05;;;;;;;37.10;12.73;;;17.00;79.60;;;;;;9169566;19;20014;-72
2023/10/02 04:24:10;;;;;;;28.50;10.23;;;17.10;79.70;;;;;;9167189;19;20014;-69
2023/10/02 04:27:19;;;;;;;30.77;11.57;;;17.00;79.70;;;;;;9167115;19;20033;-73
2023/10/02 04:30:25;;;;;;;27.83;11.88;;;17.10;79.90;;;;;;9167758;19;20010;-70
2023/10/02 04:33:38;;;;;;;32.70;13.25;;;17.00;79.80;;;;;;9169147;19;20011;-70
2023/10/02 04:36:46;;;;;;;30.42;11.95;;;17.10;79.90;;;;;;9167740;19;20417;-69
2023/10/02 04:39:54;;;;;;;30.77;11.48;;;17.10;80.00;;;;;;9165376;19;20015;-69
2023/10/02 04:43:19;;;;;;;27.45;10.63;;;17.10;79.90;;;;;;9166224;19;20022;-69
2023/10/02 04:46:32;;;;;;;30.55;11.38;;;17.00;79.40;;;;;;9168448;19;20010;-72
2023/10/02 04:49:59;;;;;;;28.17;11.10;;;17.10;80.60;;;;;;9164137;19;20442;-69
2023/10/02 04:53:19;;;;;;;30.35;11.85;;;17.20;81.70;;;;;;9165801;19;20468;-69
2023/10/02 04:56:26;;;;;;;30.50;12.27;;;17.20;82.00;;;;;;9166051;19;20064;-70
2023/10/02 04:59:51;;;;;;;32.65;11.88;;;17.20;80.20;;;;;;9164087;19;20019;-69
2023/10/02 05:03:09;;;;;;;30.92;10.93;;;17.10;80.20;;;;;;9166721;19;20388;-71
2023/10/02 05:06:39;;;;;;;31.02;10.55;;;17.20;80.20;;;;;;9164480;19;20015;-70
2023/10/02 05:09:49;;;;;;;27.40;10.45;;;17.20;80.20;;;;;;9164410;19;20645;-72
2023/10/02 05:12:56;;;;;;;25.00;10.23;;;17.20;80.30;;;;;;9167110;19;20017;-69
2023/10/02 05:16:07;;;;;;;30.40;10.55;;;17.20;80.40;;;;;;9161968;19;20017;-69
2023/10/02 05:19:15;;;;;;;28.02;10.82;;;17.20;80.30;;;;;;9163260;19;20019;-71
2023/10/02 05:22:17;;;;;;;30.60;11.63;;;17.20;80.30;;;;;;9167412;19;20025;-69
2023/10/02 05:25:29;;;;;;;32.53;11.40;;;17.20;80.30;;;;;;9164985;19;20014;-69
2023/10/02 05:28:45;;;;;;;31.27;11.52;;;17.20;80.40;;;;;;9165508;19;20022;-69
2023/10/02 05:31:53;;;;;;;32.00;12.20;;;17.20;80.40;;;;;;9165690;19;20014;-70
2023/10/02 05:38:21;;;;;;;26.42;10.73;;;17.20;80.40;;;;;;9165311;19;20364;-70
2023/10/02 05:41:38;;;;;;;30.20;12.43;;;17.20;80.30;;;;;;9167117;19;20571;-72
2023/10/02 05:44:47;;;;;;;30.30;11.52;;;17.20;80.40;;;;;;9166443;19;20498;-69
2023/10/02 05:47:52;;;;;;;29.08;10.68;;;17.30;80.50;;;;;;9165094;19;20018;-70
2023/10/02 05:51:01;;;;;;;29.27;11.35;;;17.20;80.40;;;;;;9171124;19;20368;-69
2023/10/02 05:54:06;;;;;;;33.45;12.20;;;17.30;80.70;;;;;;9171210;19;20021;-69
2023/10/02 05:57:17;;;;;;;27.85;10.63;;;17.20;80.50;;;;;;9175960;19;20022;-72
2023/10/02 06:00:22;;;;;;;25.40;10.18;;;17.30;80.60;;;;;;9174605;19;20106;-70
2023/10/02 06:03:34;;;;;;;32.50;10.40;;;17.20;80.50;;;;;;9173808;19;20010;-67
2023/10/02 06:06:40;;;;;;;26.10;10.25;;;17.20;80.50;;;;;;9176245;19;20025;-72
2023/10/02 06:09:49;;;;;;;30.05;11.85;;;17.20;80.50;;;;;;9175836;19;20015;-68
2023/10/02 06:13:03;;;;;;;29.25;11.27;;;17.20;80.60;;;;;;9175805;19;20086;-70
2023/10/02 06:16:11;;;;;;;26.38;10.30;;;17.20;80.60;;;;;;9170140;19;20014;-68
2023/10/02 06:19:17;;;;;;;28.58;11.05;;;17.20;80.60;;;;;;9174485;19;20017;-69
2023/10/02 06:22:25;;;;;;;31.05;11.75;;;17.20;80.70;;;;;;9175701;19;20015;-68
2023/10/02 06:25:30;;;;;;;29.20;10.85;;;17.30;81.50;;;;;;9174990;19;20015;-71
2023/10/02 06:28:41;;;;;;;29.02;11.20;;;17.30;80.80;;;;;;9172403;19;20118;-69
2023/10/02 06:31:51;;;;;;;31.40;11.35;;;17.20;80.70;;;;;;9174488;19;20018;-69
2023/10/02 06:35:00;;;;;;;30.40;10.52;;;17.20;80.70;;;;;;9172952;19;20014;-71
2023/10/02 06:38:15;;;;;;;29.17;10.50;;;17.30;80.70;;;;;;9171629;19;20048;-73
2023/10/02 06:41:25;;;;;;;37.08;12.65;;;17.30;80.80;;;;;;9175354;19;20031;-68
2023/10/02 06:44:37;;;;;;;28.95;11.30;;;17.30;80.80;;;;;;9172839;19;20785;-68
2023/10/02 06:47:44;;;;;;;34.63;11.15;;;17.30;80.90;;;;;;9174820;19;20024;-73
2023/10/02 06:50:55;;;;;;;26.80;10.68;;;17.30;80.80;;;;;;9166421;19;20487;-69
2023/10/02 06:54:07;;;;;;;33.22;11.93;;;17.30;80.80;;;;;;9166605;19;20014;-69
2023/10/02 06:57:17;;;;;;;29.52;11.60;;;17.40;80.80;;;;;;9168187;19;20033;-70
2023/10/02 07:00:54;;;;;;;27.73;10.60;;;17.40;80.90;;;;;;9169028;19;20014;-68
2023/10/02 07:03:56;;;;;;;30.45;11.18;;;17.40;81.00;;;;;;9171666;19;20034;-69
2023/10/02 07:07:10;;;;;;;27.00;10.80;;;17.40;80.90;;;;;;9170922;19;20480;-69
2023/10/02 07:10:15;;;;;;;35.03;12.38;;;17.50;81.10;;;;;;9171192;19;20069;-71
2023/10/02 07:13:25;;;;;;;27.23;10.73;;;17.50;81.00;;;;;;9170629;19;20023;-69
2023/10/02 07:16:34;;;;;;;28.10;10.13;;;17.50;81.10;;;;;;9167335;19;20577;-69
2023/10/02 07:19:48;;;;;;;27.58;11.27;;;17.60;81.10;;;;;;9171062;19;20683;-69
2023/10/02 07:22:53;;;;;;;38.85;13.20;;;17.60;81.10;;;;;;9169732;19;20040;-69
2023/10/02 07:26:04;;;;;;;27.23;10.88;;;17.60;81.00;;;;;;9170036;19;20025;-69
2023/10/02 07:29:09;;;;;;;32.80;11.63;;;17.70;81.10;;;;;;9169038;19;20456;-69
2023/10/02 07:32:20;;;;;;;30.00;11.18;;;17.70;81.10;;;;;;9170255;19;20022;-69
2023/10/02 07:35:26;;;;;;;31.27;11.35;;;17.70;81.20;;;;;;9167396;19;20014;-70
2023/10/02 07:38:34;;;;;;;34.72;11.93;;;17.80;81.20;;;;;;9168746;19;20025;-69
2023/10/02 07:41:40;;;;;;;33.53;12.65;;;17.90;81.20;;;;;;9167938;19;20064;-69
2023/10/02 07:44:48;;;;;;;30.83;12.20;;;17.90;81.20;;;;;;9167742;19;20025;-68
2023/10/02 07:48:08;;;;;;;26.70;11.48;;;17.90;81.30;;;;;;9164719;19;20505;-68
2023/10/02 07:51:16;;;;;;;24.65;10.88;;;18.00;81.40;;;;;;9167479;19;20029;-68
2023/10/02 07:54:21;;;;;;;31.23;11.93;;;18.10;81.40;;;;;;9165682;19;20017;-68
2023/10/02 07:57:33;;;;;;;29.27;12.25;;;18.10;81.40;;;;;;9166009;19;20476;-68
2023/10/02 08:00:41;;;;;;;34.30;12.77;;;18.20;81.50;;;;;;9166703;19;20018;-70
2023/10/02 08:03:52;;;;;;;27.83;11.45;;;18.30;81.60;;;;;;9167424;19;20014;-71
2023/10/02 08:07:00;;;;;;;36.38;13.30;;;18.40;81.60;;;;;;9167231;19;20015;-70
2023/10/02 08:10:47;;;;;;;26.48;10.80;;;18.50;81.60;;;;;;9166074;19;20412;-73
2023/10/02 08:13:52;;;;;;;29.17;10.77;;;18.60;81.70;;;;;;9166115;19;20021;-72
2023/10/02 08:17:08;;;;;;;28.95;11.52;;;18.80;81.80;;;;;;9164016;19;20011;-72
2023/10/02 08:20:24;;;;;;;25.55;11.27;;;18.90;81.60;;;;;;9165535;19;20022;-73
2023/10/02 08:23:31;;;;;;;34.60;12.27;;;19.00;81.50;;;;;;9167600;19;20631;-72
2023/10/02 08:26:43;;;;;;;31.42;11.63;;;19.20;81.40;;;;;;9168867;19;20749;-70
2023/10/02 08:29:53;;;;;;;30.27;11.38;;;19.30;81.30;;;;;;9165828;19;20483;-72
2023/10/02 08:33:05;;;;;;;30.13;11.15;;;19.60;81.20;;;;;;9166862;19;20015;-71
2023/10/02 08:36:41;;;;;;;31.23;12.13;;;19.50;81.00;;;;;;9207130;19;21494;-71
2023/10/02 08:39:51;;;;;;;32.08;11.65;;;19.60;80.90;;;;;;9208243;19;20025;-73
2023/10/02 08:42:58;;;;;;;29.20;11.05;;;19.70;80.90;;;;;;9209849;19;20349;-72
2023/10/02 08:46:07;;;;;;;31.83;11.60;;;19.80;80.90;;;;;;9208404;19;20381;-73
2023/10/02 08:49:14;;;;;;;31.02;11.90;;;19.90;80.70;;;;;;9206435;19;20961;-71
2023/10/02 08:52:23;;;;;;;28.42;11.65;;;20.00;80.70;;;;;;9207828;19;20018;-68
2023/10/02 08:55:36;;;;;;;40.05;13.13;;;20.10;80.60;;;;;;9199651;19;20332;-68
2023/10/02 08:58:44;;;;;;;29.83;11.75;;;20.30;80.60;;;;;;9205231;19;20118;-68
2023/10/02 09:01:50;;;;;;;26.45;11.15;;;20.30;80.30;;;;;;9205789;19;20102;-68
2023/10/02 09:05:10;;;;;;;30.15;10.90;;;20.40;80.30;;;;;;9207479;19;20020;-67
2023/10/02 09:08:21;;;;;;;28.98;11.25;;;20.40;80.20;;;;;;9208218;19;20486;-71
2023/10/02 09:11:35;;;;;;;32.55;12.88;;;20.50;80.20;;;;;;9208725;19;20025;-71
2023/10/02 09:14:43;;;;;;;33.65;11.60;;;20.60;80.20;;;;;;9204888;19;20503;-69
2023/10/02 09:17:51;;;;;;;32.15;12.38;;;20.70;80.10;;;;;;9206845;19;20014;-69
2023/10/02 09:21:13;;;;;;;32.53;12.38;;;20.80;80.10;;;;;;9206919;19;20010;-68
2023/10/02 09:24:23;;;;;;;29.67;10.77;;;20.90;80.90;;;;;;9205629;19;20022;-69
2023/10/02 09:27:30;;;;;;;29.05;10.93;;;20.90;79.90;;;;;;9207616;19;20014;-70
2023/10/02 09:30:41;;;;;;;34.17;12.32;;;21.00;79.70;;;;;;9206851;19;20458;-70
2023/10/02 09:33:48;;;;;;;31.77;12.23;;;21.10;79.60;;;;;;9201923;19;20026;-70
2023/10/02 09:37:26;;;;;;;33.10;11.98;;;21.20;79.50;;;;;;9201640;19;20014;-68
2023/10/02 09:40:58;;;;;;;30.02;11.90;;;21.30;79.40;;;;;;9201563;19;20377;-69
2023/10/02 09:44:16;;;;;;;31.95;12.80;;;21.30;79.30;;;;;;9201788;19;20021;-69
2023/10/02 09:47:25;;;;;;;26.35;10.93;;;21.40;79.20;;;;;;9172418;19;20027;-67
2023/10/02 09:50:36;;;;;;;30.52;12.07;;;21.40;79.10;;;;;;9162003;19;20014;-67
2023/10/02 09:54:04;;;;;;;27.17;11.85;;;21.50;79.10;;;;;;9160646;19;20417;-69
2023/10/02 09:57:24;;;;;;;28.55;10.57;;;21.60;78.90;;;;;;9166102;19;20881;-68
2023/10/02 10:00:41;;;;;;;34.53;12.77;;;21.60;78.80;;;;;;9170691;19;20907;-71
2023/10/02 10:03:49;;;;;;;30.75;11.80;;;21.60;78.60;;;;;;9170134;19;20056;-69
2023/10/02 10:07:35;;;;;;;31.88;12.18;;;21.70;78.70;;;;;;9168063;19;20031;-69
2023/10/02 10:10:47;;;;;;;31.13;12.02;;;21.70;78.80;;;;;;9169254;19;20022;-69
2023/10/02 10:13:59;;;;;;;32.17;11.90;;;21.80;79.00;;;;;;9168176;19;20018;-69
2023/10/02 10:17:13;;;;;;;28.58;11.68;;;22.00;79.70;;;;;;9165240;19;20018;-70
2023/10/02 10:20:26;;;;;;;27.00;11.68;;;22.00;78.90;;;;;;9169739;19;20496;-69
2023/10/02 10:23:34;;;;;;;30.10;11.57;;;22.10;78.60;;;;;;9169419;19;20025;-68
2023/10/02 10:26:44;;;;;;;28.23;12.00;;;22.30;78.50;;;;;;9167653;19;20015;-70
2023/10/02 10:30:09;;;;;;;29.88;11.98;;;22.40;78.30;;;;;;9168774;19;20139;-68
2023/10/02 10:33:40;;;;;;;31.95;12.35;;;22.50;78.10;;;;;;9169938;19;20022;-69
2023/10/02 10:36:48;;;;;;;30.88;12.68;;;22.60;77.80;;;;;;9164727;19;20024;-67
2023/10/02 10:39:57;;;;;;;31.30;11.55;;;22.70;77.80;;;;;;9166428;19;20027;-66
2023/10/02 10:43:05;;;;;;;30.63;11.93;;;22.80;77.60;;;;;;9166794;19;20011;-67
2023/10/02 10:46:14;;;;;;;26.55;11.10;;;22.90;78.30;;;;;;9168123;19;20011;-67
2023/10/02 10:49:24;;;;;;;34.85;12.90;;;22.90;77.40;;;;;;9164752;19;20018;-66
2023/10/02 10:52:38;;;;;;;32.75;12.23;;;22.90;77.30;;;;;;9167158;19;20044;-67
2023/10/02 10:55:47;;;;;;;34.58;11.73;;;23.00;77.20;;;;;;9161843;19;20025;-67
2023/10/02 10:59:02;;;;;;;26.88;11.05;;;23.10;77.30;;;;;;9163592;19;20039;-67
2023/10/02 11:02:14;;;;;;;28.13;11.65;;;23.10;77.20;;;;;;9166383;19;20050;-67
2023/10/02 11:05:23;;;;;;;26.85;11.82;;;23.30;77.40;;;;;;9165926;19;20026;-67
2023/10/02 11:08:33;;;;;;;30.65;11.48;;;23.30;78.10;;;;;;9165250;19;20014;-67
2023/10/02 11:11:48;;;;;;;30.05;11.15;;;23.40;77.30;;;;;;9163465;19;20025;-67
2023/10/02 11:14:55;;;;;;;26.02;11.15;;;23.40;77.60;;;;;;9163594;19;20002;-67
2023/10/02 11:18:25;;;;;;;30.55;11.00;;;23.50;85.40;;;;;;9167036;19;20025;-68
2023/10/02 11:21:44;;;;;;;27.40;11.25;;;23.60;81.40;;;;;;9163950;19;20038;-68
2023/10/02 11:25:18;;;;;;;28.45;11.00;;;23.70;80.00;;;;;;9165091;19;20133;-66
2023/10/02 11:28:33;;;;;;;26.92;10.77;;;23.70;82.70;;;;;;9163934;19;20010;-71
2023/10/02 11:31:45;;;;;;;29.05;10.52;;;23.80;77.80;;;;;;9164047;19;20014;-70
2023/10/02 11:34:59;;;;;;;31.70;11.05;;;23.90;78.80;;;;;;9167192;19;20026;-69
2023/10/02 11:38:07;;;;;;;25.90;10.35;;;24.00;82.90;;;;;;9163957;19;20022;-70
2023/10/02 11:41:15;;;;;;;29.90;11.73;;;24.00;81.60;;;;;;9167898;19;20010;-70
2023/10/02 11:44:20;;;;;;;34.72;11.55;;;24.00;78.00;;;;;;9165840;19;20010;-69
2023/10/02 11:47:28;;;;;;;25.65;10.52;;;24.00;79.60;;;;;;9167621;19;20015;-69
2023/10/02 11:50:38;;;;;;;28.02;11.18;;;24.30;82.40;;;;;;9162727;19;20010;-71
2023/10/02 11:53:45;;;;;;;30.02;11.48;;;24.00;78.90;;;;;;9159482;19;20014;-69
2023/10/02 11:56:51;;;;;;;25.88;11.18;;;24.00;81.70;;;;;;9162319;19;20035;-69
2023/10/02 11:59:58;;;;;;;30.40;11.63;;;24.00;76.00;;;;;;9162383;19;20020;-70
2023/10/02 12:03:04;;;;;;;25.90;10.32;;;24.00;76.70;;;;;;9162359;19;20010;-70
2023/10/02 12:06:16;;;;;;;27.27;10.60;;;24.00;79.50;;;;;;9163459;19;20018;-69
2023/10/02 12:09:24;;;;;;;27.17;12.02;;;23.90;75.30;;;;;;9163060;19;20018;-70
2023/10/02 12:12:32;;;;;;;33.05;12.30;;;23.90;75.30;;;;;;9165084;19;20006;-71
2023/10/02 12:15:37;;;;;;;31.88;11.63;;;23.90;75.30;;;;;;9164315;19;20052;-70
2023/10/02 12:18:45;;;;;;;32.47;11.55;;;23.90;75.30;;;;;;9165266;19;20470;-70
2023/10/02 12:21:54;;;;;;;32.63;11.48;;;24.00;75.70;;;;;;9164785;19;20030;-71
2023/10/02 12:25:15;;;;;;;28.08;11.40;;;24.00;76.20;;;;;;9163930;19;20026;-68
2023/10/02 12:28:21;;;;;;;31.33;13.68;;;26.20;76.70;;;;;;9163345;19;20022;-72
2023/10/02 12:31:30;;;;;;;27.52;10.85;;;24.00;75.20;;;;;;9163067;19;20022;-71
2023/10/02 12:34:36;;;;;;;33.65;12.25;;;24.00;78.90;;;;;;9164493;19;20018;-69
2023/10/02 12:37:45;;;;;;;31.05;12.68;;;24.00;75.10;;;;;;9162425;19;20015;-70
2023/10/02 12:40:51;;;;;;;32.35;11.23;;;24.00;75.10;;;;;;9163921;19;20019;-70
2023/10/02 12:43:59;;;;;;;27.85;12.18;;;24.00;75.10;;;;;;9162475;19;20007;-69
2023/10/02 12:47:04;;;;;;;31.92;11.80;;;24.00;75.10;;;;;;9161970;19;20074;-69
2023/10/02 12:50:13;;;;;;;31.42;12.68;;;24.10;75.20;;;;;;9160794;19;20772;-69
2023/10/02 12:53:21;;;;;;;24.80;10.48;;;24.10;75.10;;;;;;9158179;19;20002;-69
2023/10/02 12:56:30;;;;;;;25.83;11.57;;;24.20;75.00;;;;;;9161113;19;20017;-69
2023/10/02 12:59:37;;;;;;;28.40;11.25;;;24.20;75.00;;;;;;9163924;19;20022;-69
2023/10/02 13:02:44;;;;;;;28.35;11.48;;;24.30;75.00;;;;;;9161973;19;20022;-69
2023/10/02 13:05:50;;;;;;;32.28;11.93;;;24.30;74.80;;;;;;9160948;19;20499;-70
2023/10/02 13:09:09;;;;;;;31.25;10.82;;;24.30;74.80;;;;;;9161849;19;20022;-69
2023/10/02 13:12:16;;;;;;;27.38;12.20;;;24.40;74.80;;;;;;9160731;19;20014;-70
2023/10/02 13:15:24;;;;;;;30.90;11.32;;;24.40;74.70;;;;;;9161692;19;20052;-70
2023/10/02 13:18:31;;;;;;;29.55;11.07;;;24.40;74.60;;;;;;9161793;19;20392;-70
2023/10/02 13:21:40;;;;;;;30.13;12.25;;;24.50;74.60;;;;;;9164376;19;20021;-70
2023/10/02 13:24:49;;;;;;;29.17;11.23;;;24.50;74.60;;;;;;9168625;19;20025;-70
2023/10/02 13:27:57;;;;;;;29.23;10.98;;;24.60;74.50;;;;;;9171562;19;20364;-68
2023/10/02 13:31:12;;;;;;;25.88;10.77;;;24.60;74.60;;;;;;9171347;19;20014;-70
2023/10/02 13:34:21;;;;;;;24.45;10.50;;;24.60;74.20;;;;;;9167915;19;20014;-70
2023/10/02 13:37:26;;;;;;;25.70;11.70;;;24.70;74.30;;;;;;9166590;19;20106;-72
2023/10/02 13:40:38;;;;;;;31.27;11.27;;;24.80;74.20;;;;;;9168862;19;20010;-69
2023/10/02 13:43:44;;;;;;;27.08;10.80;;;24.80;74.10;;;;;;9167852;19;20082;-69
2023/10/02 13:46:54;;;;;;;29.35;10.95;;;24.80;74.10;;;;;;9169445;19;20010;-70
2023/10/02 13:49:59;;;;;;;27.70;10.27;;;24.80;74.10;;;;;;9165871;19;20085;-71
2023/10/02 13:53:08;;;;;;;31.73;10.95;;;24.80;74.00;;;;;;9170236;19;20025;-69
2023/10/02 13:56:19;;;;;;;25.40;10.35;;;24.80;74.00;;;;;;9163881;19;20018;-71
2023/10/02 13:59:26;;;;;;;27.23;10.90;;;24.90;73.90;;;;;;9167294;19;20014;-69
2023/10/02 14:02:32;;;;;;;27.75;11.02;;;24.90;74.00;;;;;;9169417;19;20418;-70
2023/10/02 14:05:39;;;;;;;25.48;10.60;;;24.90;73.90;;;;;;9169631;19;20356;-70
2023/10/02 14:08:45;;;;;;;26.98;10.38;;;24.90;73.90;;;;;;9166765;19;20287;-69
2023/10/02 14:11:55;;;;;;;22.92;8.70;;;24.90;73.90;;;;;;9165393;19;20014;-68
2023/10/02 14:15:00;;;;;;;30.95;10.43;;;24.90;73.70;;;;;;9166004;19;20014;-68
2023/10/02 14:18:08;;;;;;;27.52;10.93;;;25.00;73.70;;;;;;9164325;19;20358;-69
2023/10/02 14:21:14;;;;;;;31.67;10.38;;;24.90;73.60;;;;;;9164754;19;20025;-69
2023/10/02 14:24:21;;;;;;;26.83;10.85;;;24.90;73.60;;;;;;9167217;19;20479;-69
2023/10/02 14:27:29;;;;;;;29.08;11.60;;;25.00;73.60;;;;;;9165672;19;21177;-70
2023/10/02 14:30:39;;;;;;;30.50;11.80;;;25.00;73.60;;;;;;9166566;19;20017;-69
2023/10/02 14:33:45;;;;;;;25.30;10.52;;;25.00;73.50;;;;;;9166362;19;20138;-70
2023/10/02 14:36:54;;;;;;;25.20;10.40;;;25.00;73.50;;;;;;9164119;19;20490;-69
2023/10/02 14:40:00;;;;;;;27.48;11.75;;;25.00;73.50;;;;;;9166695;19;20011;-69
2023/10/02 14:43:12;;;;;;;29.48;11.10;;;25.00;73.50;;;;;;9167103;19;20041;-69
2023/10/02 14:46:17;;;;;;;26.92;10.13;;;25.00;73.50;;;;;;9167939;19;20066;-69
2023/10/02 14:49:24;;;;;;;31.27;11.55;;;25.00;73.50;;;;;;9165862;19;20022;-70
2023/10/02 14:52:30;;;;;;;25.95;10.82;;;25.00;73.40;;;;;;9165860;19;20014;-70
2023/10/02 14:55:44;;;;;;;31.20;11.45;;;25.10;73.40;;;;;;9161532;19;20026;-69
2023/10/02 14:58:52;;;;;;;32.30;12.50;;;25.10;73.50;;;;;;9166718;19;20029;-69
2023/10/02 15:01:59;;;;;;;24.75;10.43;;;25.10;73.40;;;;;;9166917;19;20041;-69
2023/10/02 15:05:05;;;;;;;39.00;12.20;;;25.00;73.30;;;;;;9165176;19;20145;-69
2023/10/02 15:08:13;;;;;;;28.75;11.05;;;25.00;73.30;;;;;;9163642;19;20034;-69
2023/10/02 15:11:18;;;;;;;30.67;11.32;;;25.00;73.30;;;;;;9166331;19;20443;-69
2023/10/02 15:14:28;;;;;;;28.55;10.80;;;25.00;73.30;;;;;;9165740;19;20014;-69
2023/10/02 15:17:35;;;;;;;38.53;12.23;;;25.00;73.30;;;;;;9161067;19;20496;-69
2023/10/02 15:20:43;;;;;;;34.38;12.15;;;25.00;73.30;;;;;;9160776;19;20018;-69
2023/10/02 15:23:48;;;;;;;38.20;12.18;;;25.00;73.30;;;;;;9165576;19;20507;-70
2023/10/02 15:26:57;;;;;;;29.38;10.85;;;24.90;73.20;;;;;;9162235;19;20010;-69
2023/10/02 15:30:06;;;;;;;30.90;11.88;;;24.90;73.20;;;;;;9162051;19;20022;-70
2023/10/02 15:33:13;;;;;;;26.88;10.50;;;24.80;73.20;;;;;;9162104;19;20010;-69
2023/10/02 15:36:19;;;;;;;26.40;10.75;;;24.80;73.20;;;;;;9163806;19;20493;-71
2023/10/02 15:39:26;;;;;;;29.40;11.30;;;24.80;73.30;;;;;;9159721;19;20011;-70
2023/10/02 15:42:31;;;;;;;25.85;11.35;;;24.80;73.40;;;;;;9164517;19;20101;-70
2023/10/02 15:45:41;;;;;;;28.30;10.38;;;24.70;73.40;;;;;;9161617;19;20014;-71
2023/10/02 15:48:49;;;;;;;32.03;11.45;;;24.70;73.50;;;;;;9160902;19;20018;-68
2023/10/02 15:51:56;;;;;;;31.58;12.93;;;24.60;73.50;;;;;;9162788;19;20026;-70
2023/10/02 15:55:02;;;;;;;30.67;11.20;;;24.60;73.70;;;;;;9158541;19;20673;-69
2023/10/02 15:58:11;;;;;;;25.42;11.25;;;24.50;73.60;;;;;;9162580;19;20022;-70
2023/10/02 16:01:22;;;;;;;25.63;10.40;;;24.50;73.90;;;;;;9162196;19;20015;-69
2023/10/02 16:04:30;;;;;;;27.77;11.25;;;23.50;74.00;;;;;;9163364;19;20019;-69
2023/10/02 16:07:36;;;;;;;25.17;10.68;;;24.50;73.70;;;;;;9160552;19;20475;-69
2023/10/02 16:10:44;;;;;;;24.48;10.90;;;24.40;73.10;;;;;;9162808;19;20014;-68
2023/10/02 16:13:51;;;;;;;31.35;10.98;;;24.40;73.70;;;;;;9161310;19;20033;-68